Aviation Digital Data Service (ADDS)

Output produced by METARs form (1252 UTC 16 August 2022)
found at http://aviationweather.gov/metar/data/
 
LSZH 161250Z VRB02KT 9999 FEW065 28/11 Q1011 NOSIG
LSZH 161220Z 05004KT 350V110 9999 FEW064 27/11 Q1011 NOSIG
TAF LSZH 161125Z 1612/1718 22004KT 9999 FEW055 TX29/1615Z TN15/1704Z TX29/1714Z 
     BECMG 1616/1619 CAVOK 
     PROB30 
     TEMPO 1700/1704 21010KT 9999 SHRA SCT080TCU 
     BECMG 1707/1710 02006KT 
     BECMG 1712/1715 25010KT 
     TEMPO 1715/1718 28015G30KT 3000 TSRA FEW060CB BKN100
       
LFSB 161230Z 34004KT 290V050 9999 FEW053 29/12 Q1010 NOSIG
LFSB 161200Z 18004KT 080V240 9999 FEW053 29/12 Q1010 NOSIG
TAF LFSB 161100Z 1612/1712 VRB04KT 9999 FEW050 
     BECMG 1612/1613 36005KT 
     TEMPO 1623/1704 26010KT -SHRA SCT080TCU 
     PROB40 
     TEMPO 1700/1703 27015G25KT 4000 SHRA SCT070CB
       
LSZG 161250Z VRB02KT 9999 FEW040 28/09 Q1011
LSZG 161220Z 23004KT 190V270 9999 FEW040 28/12 Q1011
TAF LSZG 161125Z 1612/1621 VRB02KT 9999 FEW070 
     BECMG 1616/1619 CAVOK
       
LSZB 161250Z 29004KT 220V350 9999 FEW060 28/10 Q1011
LSZB 161220Z 29005KT 200V340 CAVOK 28/11 Q1011
TAF LSZB 161125Z 1612/1621 VRB02KT CAVOK 
     BECMG 1616/1618 9999 SCT120
       
LSGG 161250Z 20006KT 110V280 9999 FEW060 29/11 Q1010 NOSIG
LSGG 161220Z VRB04KT 9999 FEW050 28/11 Q1011 NOSIG
TAF LSGG 161125Z 1612/1718 VRB02KT 9999 FEW040 TX29/1615Z TN18/1704Z TX25/1715Z 
     PROB40 
     TEMPO 1619/1621 TSRA SCT060CB
       
LSZR 161250Z 28004KT 250V310 CAVOK 24/12 Q1012 RMK K
LSZR 161220Z 28004KT 250V310 CAVOK 24/12 Q1012 RMK K
TAF LSZR 161125Z 1612/1621 VRB02KT CAVOK
       
LSGS 161250Z 23007KT 170V290 9999 FEW100 30/10 Q1009
LSGS 161220Z 25008KT 210V290 9999 FEW100 29/08 Q1009
TAF LSGS 161125Z 1612/1621 24012KT 9999 FEW100 
     BECMG 1617/1619 VRB02KT
       
LSZA 161250Z 19005KT 130V220 9999 SCT060 30/17 Q1011
LSZA 161220Z 20006KT 170V230 9999 SCT060 29/16 Q1011
TAF LSZA 161125Z 1612/1621 VRB02KT 9999 FEW070 
     PROB30 
     TEMPO 1612/1616 20010KT
       
EDNY 161220Z 21005KT CAVOK 26/14 Q1012
TAF EDNY 161100Z 1612/1712 23005KT CAVOK 
     BECMG 1617/1620 04003KT 
     TEMPO 1710/1712 23005KT
       
EDDS 161220Z AUTO VRB03KT CAVOK 26/12 Q1011 NOSIG
TAF EDDS 161100Z 1612/1712 VRB03KT 9999 FEW045 
     TEMPO 1613/1619 32005KT 
     TEMPO 1710/1712 36005KT
       
LOWI 161220Z 19003KT 120V280 9999 FEW070 25/13 Q1012 BECMG 08008KT
TAF LOWI 161115Z 1612/1712 08008KT 9999 FEW060 TX28/1712Z TN15/1704Z 
     BECMG 1618/1620 27003KT 
     BECMG 1705/1707 27009KT 
     BECMG 1710/1712 11012KT
       
EDDM 161220Z AUTO 13005KT 050V170 CAVOK 27/11 Q1012 NOSIG
TAF EDDM 161100Z 1612/1718 VRB03KT CAVOK 
     PROB30 
     TEMPO 1613/1616 23005KT 
     BECMG 1707/1709 08008KT
       
LFMD 161230Z AUTO 16009KT 120V190 9999 FEW018 29/23 Q1010 NOSIG
LFMD 161200Z AUTO 16009KT 120V190 9999 FEW018 29/23 Q1010 NOSIG
TAF LFMD 160800Z 1609/1709 11010KT CAVOK 
     BECMG 1619/1621 VRB03KT 
     TEMPO 1708/1709 VRB30G40KT 2000 TSRA SCT040CB
       
LFLL 161230Z 19010KT 140V240 CAVOK 31/13 Q1009 NOSIG
LFLL 161200Z 19008KT 150V230 CAVOK 30/13 Q1009 NOSIG
TAF LFLL 161100Z 1612/1718 18008KT CAVOK 
     TEMPO 1618/1705 VRB15G30KT 2000 TSRA SCT008 BKN050CB 
     PROB30 
     TEMPO 1705/1707 3000 BR BKN006 
     TEMPO 1714/1718 VRB20G35KT 1500 TSRA SCT012 BKN050CB
       
LIMC 161220Z 23006KT 180V300 9999 SCT050 29/16 Q1011 NOSIG
TAF LIMC 161100Z 1612/1718 17010KT 9999 SCT040 
     BECMG 1618/1620 35007KT 
     TEMPO 1700/1710 4000 TSRA SCT014CB 
     BECMG 1716/1718 3000 TSRAGR BKN014CB
       
LFPB 161230Z AUTO 18006KT 120V220 9999 FEW046/// BKN170/// ///CB 26/15 Q1009 TEMPO VRB15G35KT 2500 TSRA
LFPB 161200Z AUTO 16007KT 110V210 CAVOK 26/16 Q1009 TEMPO SCT040CB
TAF LFPB 161100Z 1612/1712 18008KT CAVOK 
     TEMPO 1613/1621 SCT040CB 
     PROB40 
     TEMPO 1614/1620 VRB15G35KT 2500 TSRA 
     PROB30 
     TEMPO 1708/1710 4000 TSRA SCT040CB
       
LIPZ 161220Z 14006KT 110V170 CAVOK 28/16 Q1011 NOSIG
TAF LIPZ 161100Z 1612/1718 13010KT CAVOK 
     BECMG 1618/1620 04005KT 
     TEMPO 1700/1705 2000 BCFG BKN005 
     BECMG 1709/1711 15012KT